createdAt,value
2019-05-29T00:02:15.096Z,99.90
2019-05-29T00:04:43.269Z,99.90
2019-05-29T00:07:12.176Z,99.90
2019-05-29T00:09:40.615Z,99.90
2019-05-29T00:12:11.354Z,99.90
2019-05-29T00:14:38.223Z,99.90
2019-05-29T00:17:06.553Z,99.90
2019-05-29T00:19:34.354Z,99.90
2019-05-29T00:22:02.182Z,99.90
2019-05-29T00:24:30.189Z,99.90
2019-05-29T00:26:58.012Z,99.90
2019-05-29T00:29:25.928Z,99.90
2019-05-29T00:31:54.235Z,99.90
2019-05-29T00:34:22.200Z,99.90
2019-05-29T00:36:50.380Z,99.90
2019-05-29T00:39:18.712Z,99.90
2019-05-29T00:41:48.119Z,99.90
2019-05-29T00:44:16.032Z,99.90
2019-05-29T00:46:44.123Z,99.90
2019-05-29T00:49:12.385Z,99.90
2019-05-29T00:51:40.636Z,99.90
2019-05-29T00:54:08.561Z,99.90
2019-05-29T00:56:36.816Z,99.90
2019-05-29T00:59:05.093Z,99.90
2019-05-29T01:01:33.027Z,99.90
2019-05-29T01:04:00.940Z,99.90
2019-05-29T01:06:28.803Z,99.90
2019-05-29T01:08:56.912Z,99.90
2019-05-29T01:11:25.052Z,99.90
2019-05-29T01:13:53.485Z,99.90
2019-05-29T01:16:21.738Z,99.90
2019-05-29T01:18:49.665Z,99.90
2019-05-29T01:21:18.115Z,99.90
2019-05-29T01:23:46.127Z,99.90
2019-05-29T01:26:14.542Z,99.90
2019-05-29T01:28:42.448Z,99.90
2019-05-29T01:31:10.376Z,99.90
2019-05-29T01:33:38.389Z,99.90
2019-05-29T01:36:06.304Z,99.90
2019-05-29T01:38:34.614Z,99.90
2019-05-29T01:41:02.536Z,99.90
2019-05-29T01:43:31.041Z,99.90
2019-05-29T01:45:58.966Z,99.90
2019-05-29T01:48:27.757Z,99.90
2019-05-29T01:50:55.799Z,99.90
2019-05-29T01:53:23.848Z,99.90
2019-05-29T01:55:51.944Z,99.90
2019-05-29T01:58:20.432Z,99.90
2019-05-29T02:00:49.295Z,99.90
2019-05-29T02:03:17.765Z,99.90
2019-05-29T02:05:45.733Z,99.90
2019-05-29T02:08:13.606Z,99.90
2019-05-29T02:10:41.395Z,99.90
2019-05-29T02:13:09.361Z,99.90
2019-05-29T02:15:37.638Z,99.90
2019-05-29T02:18:05.841Z,99.90
2019-05-29T02:20:33.805Z,99.90
2019-05-29T02:23:02.267Z,99.90
2019-05-29T02:25:30.118Z,99.90
2019-05-29T02:27:58.071Z,99.90
2019-05-29T02:30:28.543Z,99.90
2019-05-29T02:32:55.933Z,99.90
2019-05-29T02:35:24.848Z,99.90
2019-05-29T02:37:53.756Z,99.90
2019-05-29T02:40:24.109Z,99.90
2019-05-29T02:42:52.145Z,99.90
2019-05-29T02:45:21.652Z,99.90
2019-05-29T02:47:49.934Z,99.90
2019-05-29T02:50:19.382Z,99.90
2019-05-29T02:52:47.586Z,99.90
2019-05-29T02:55:15.711Z,99.90
2019-05-29T02:57:43.653Z,99.90
2019-05-29T03:00:11.909Z,99.90
2019-05-29T03:02:40.196Z,99.90
2019-05-29T03:05:08.155Z,99.90
2019-05-29T03:07:36.180Z,99.90
2019-05-29T03:10:05.161Z,99.90
2019-05-29T03:12:33.670Z,99.90
2019-05-29T03:15:01.705Z,99.90
2019-05-29T03:17:29.847Z,99.90
2019-05-29T03:19:57.771Z,99.90
2019-05-29T03:22:26.298Z,99.90
2019-05-29T03:24:54.665Z,99.90
2019-05-29T03:27:22.670Z,99.90
2019-05-29T03:29:50.492Z,99.90
2019-05-29T03:32:18.401Z,99.90
2019-05-29T03:34:47.633Z,99.90
2019-05-29T03:37:15.956Z,99.90
2019-05-29T03:39:43.848Z,99.90
2019-05-29T03:42:11.892Z,99.90
2019-05-29T03:44:39.759Z,99.90
2019-05-29T03:47:07.814Z,99.90
2019-05-29T03:49:37.443Z,99.90
2019-05-29T03:52:05.645Z,99.90
2019-05-29T03:54:35.304Z,99.90
2019-05-29T03:57:03.391Z,99.90
2019-05-29T03:59:32.683Z,99.90
2019-05-29T04:02:00.813Z,99.90
2019-05-29T04:04:29.081Z,99.90
2019-05-29T04:06:57.028Z,99.90
2019-05-29T04:09:25.050Z,99.90
2019-05-29T04:11:53.751Z,99.90
2019-05-29T04:14:35.777Z,99.90
2019-05-29T04:17:03.785Z,99.90
2019-05-29T04:19:34.931Z,99.90
2019-05-29T04:22:08.712Z,99.90
2019-05-29T04:24:39.276Z,99.90
2019-05-29T04:27:10.740Z,99.90
2019-05-29T04:29:38.975Z,99.90
2019-05-29T04:32:07.042Z,99.90
2019-05-29T04:34:35.863Z,99.90
2019-05-29T04:37:07.347Z,99.90
2019-05-29T04:39:34.693Z,99.90
2019-05-29T04:42:02.519Z,99.90
2019-05-29T04:44:30.863Z,99.90
2019-05-29T04:47:10.516Z,99.90
2019-05-29T04:49:29.216Z,99.90
2019-05-29T04:51:58.116Z,99.90
2019-05-29T04:54:26.184Z,99.90
2019-05-29T04:56:54.141Z,99.90
2019-05-29T04:59:22.090Z,99.90
2019-05-29T05:01:50.308Z,99.90
2019-05-29T05:04:18.287Z,99.90
2019-05-29T05:06:47.391Z,99.90
2019-05-29T05:09:15.304Z,99.90
2019-05-29T05:11:43.346Z,99.90
2019-05-29T05:14:11.973Z,99.90
2019-05-29T05:16:40.063Z,99.90
2019-05-29T05:19:07.962Z,99.90
2019-05-29T05:21:36.059Z,99.90
2019-05-29T05:24:04.281Z,99.90
2019-05-29T05:26:32.199Z,99.90
2019-05-29T05:29:00.252Z,99.90
2019-05-29T05:31:28.216Z,99.90
2019-05-29T05:33:56.239Z,99.90
2019-05-29T05:36:24.118Z,99.90
2019-05-29T05:38:52.278Z,99.90
2019-05-29T05:41:20.315Z,99.90
2019-05-29T05:43:48.403Z,99.90
2019-05-29T05:46:16.516Z,99.90
2019-05-29T05:48:44.567Z,99.90
2019-05-29T05:51:12.518Z,99.90
2019-05-29T05:53:41.561Z,99.90
2019-05-29T05:56:09.800Z,99.90
2019-05-29T05:58:37.861Z,99.90
2019-05-29T06:01:05.785Z,99.90
2019-05-29T06:03:33.995Z,99.90
2019-05-29T06:06:01.807Z,99.90
2019-05-29T06:08:29.804Z,99.90
2019-05-29T06:10:57.730Z,99.90
2019-05-29T06:13:25.740Z,99.90
2019-05-29T06:15:53.740Z,99.90
2019-05-29T06:18:22.083Z,99.90
2019-05-29T06:20:50.121Z,99.90
2019-05-29T06:23:18.009Z,99.90
2019-05-29T06:25:46.251Z,99.90
2019-05-29T06:28:14.165Z,99.90
2019-05-29T06:30:43.267Z,99.90
2019-05-29T06:33:12.003Z,99.90
2019-05-29T06:35:40.005Z,99.90
2019-05-29T06:38:07.925Z,99.90
2019-05-29T06:40:38.419Z,99.90
2019-05-29T06:43:11.899Z,99.90
2019-05-29T06:45:39.998Z,99.90
2019-05-29T06:48:08.470Z,99.90
2019-05-29T06:50:37.373Z,99.90
2019-05-29T06:53:05.653Z,99.90
2019-05-29T06:55:33.630Z,99.90
2019-05-29T06:58:01.539Z,99.90
2019-05-29T07:00:35.408Z,99.90
2019-05-29T07:03:11.865Z,99.90
2019-05-29T07:05:39.890Z,99.90
2019-05-29T07:08:18.904Z,99.90
2019-05-29T07:10:38.489Z,99.90
2019-05-29T07:13:06.850Z,99.90
2019-05-29T07:15:34.678Z,99.90
2019-05-29T07:18:02.710Z,99.90
2019-05-29T07:20:30.838Z,99.90
2019-05-29T07:22:58.727Z,99.90
2019-05-29T07:25:26.790Z,99.90
2019-05-29T07:27:54.703Z,99.90
2019-05-29T07:30:23.040Z,99.90
2019-05-29T07:32:57.499Z,99.90
2019-05-29T07:35:20.769Z,99.90
2019-05-29T07:37:48.736Z,99.90
2019-05-29T07:40:18.125Z,99.90
2019-05-29T07:42:53.386Z,99.90
2019-05-29T07:45:15.937Z,99.90
2019-05-29T07:47:44.707Z,99.90
2019-05-29T07:50:13.144Z,99.90
2019-05-29T07:52:41.384Z,99.90
2019-05-29T07:55:11.133Z,99.90
2019-05-29T07:57:40.686Z,99.90
2019-05-29T08:00:09.020Z,99.90
2019-05-29T08:02:37.107Z,99.90
2019-05-29T08:05:06.022Z,99.90
2019-05-29T08:07:33.988Z,99.90
2019-05-29T08:10:01.991Z,99.90
2019-05-29T08:12:29.867Z,99.90
2019-05-29T08:15:24.374Z,99.90
2019-05-29T08:17:52.262Z,99.90
2019-05-29T08:20:20.368Z,99.90
2019-05-29T08:22:48.526Z,99.90
2019-05-29T08:25:16.774Z,99.90
2019-05-29T08:27:44.882Z,99.90
2019-05-29T08:30:13.644Z,99.90
2019-05-29T08:32:43.516Z,99.90
2019-05-29T08:35:11.681Z,99.90
2019-05-29T08:37:40.726Z,99.90
2019-05-29T08:40:09.513Z,99.90
2019-05-29T08:42:37.522Z,99.90
2019-05-29T08:45:05.930Z,99.90
2019-05-29T08:47:33.928Z,99.90
2019-05-29T08:50:17.434Z,99.90
2019-05-29T08:52:31.614Z,99.90
2019-05-29T08:54:59.551Z,99.90
2019-05-29T08:57:27.500Z,99.90
2019-05-29T08:59:55.573Z,99.90
2019-05-29T09:02:23.447Z,99.90
2019-05-29T09:04:53.037Z,99.90
2019-05-29T09:07:21.389Z,99.90
2019-05-29T09:09:49.470Z,99.90
2019-05-29T09:12:17.416Z,99.90
2019-05-29T09:15:12.656Z,99.90
2019-05-29T09:17:40.146Z,99.90
2019-05-29T09:20:25.520Z,99.90
2019-05-29T09:22:38.209Z,99.90
2019-05-29T09:25:07.447Z,99.90
2019-05-29T09:27:35.457Z,99.90
2019-05-29T09:30:03.990Z,99.90
2019-05-29T09:32:49.288Z,99.90
2019-05-29T09:35:01.953Z,99.90
2019-05-29T09:37:29.817Z,99.90
2019-05-29T09:39:57.775Z,99.90
2019-05-29T09:42:25.815Z,99.90
2019-05-29T09:44:53.674Z,99.90
2019-05-29T09:47:22.234Z,99.90
2019-05-29T09:49:50.237Z,99.90
2019-05-29T09:52:18.189Z,99.90
2019-05-29T09:54:46.213Z,99.90
2019-05-29T09:57:15.420Z,99.90
2019-05-29T09:59:43.572Z,99.90
2019-05-29T10:02:11.702Z,99.90
2019-05-29T10:04:39.522Z,99.90
2019-05-29T10:07:07.458Z,99.90
2019-05-29T10:09:35.380Z,99.90
2019-05-29T10:12:06.360Z,99.90
2019-05-29T10:14:58.877Z,99.90
2019-05-29T10:17:25.723Z,99.90
2019-05-29T10:19:55.361Z,99.90
2019-05-29T10:22:23.399Z,99.90
2019-05-29T10:24:51.464Z,99.90
2019-05-29T10:27:19.428Z,99.90
2019-05-29T10:29:50.271Z,99.90
2019-05-29T10:32:17.097Z,99.90
2019-05-29T10:34:46.240Z,99.90
2019-05-29T10:37:17.426Z,99.90
2019-05-29T10:39:44.677Z,99.90
2019-05-29T10:42:12.913Z,99.90
2019-05-29T10:44:40.796Z,99.90
2019-05-29T10:47:08.659Z,99.90
2019-05-29T10:49:36.553Z,99.90
2019-05-29T10:52:14.398Z,99.90
2019-05-29T10:54:34.601Z,99.90
2019-05-29T10:57:02.490Z,99.90
2019-05-29T10:59:30.496Z,99.90
2019-05-29T11:01:58.421Z,99.90
2019-05-29T11:04:26.343Z,99.90
2019-05-29T11:06:54.968Z,99.90
2019-05-29T11:09:24.077Z,99.90
2019-05-29T11:11:53.699Z,99.90
2019-05-29T11:14:48.564Z,99.90
2019-05-29T11:17:15.674Z,99.90
2019-05-29T11:19:43.643Z,99.90
2019-05-29T11:22:25.843Z,99.90
2019-05-29T11:24:41.300Z,99.90
2019-05-29T11:27:09.296Z,99.90
2019-05-29T11:29:37.331Z,99.90
2019-05-29T11:32:05.484Z,99.90
2019-05-29T11:34:33.386Z,99.90
2019-05-29T11:37:02.394Z,99.90
2019-05-29T11:39:30.349Z,99.90
2019-05-29T11:41:58.903Z,99.90
2019-05-29T11:44:26.937Z,99.90
2019-05-29T11:46:56.088Z,99.90
2019-05-29T11:49:24.061Z,99.90
2019-05-29T11:51:53.816Z,99.90
2019-05-29T11:54:22.489Z,99.90
2019-05-29T11:56:53.195Z,99.90
2019-05-29T11:59:21.000Z,99.90
2019-05-29T12:01:52.250Z,99.90
2019-05-29T12:04:27.047Z,99.90
2019-05-29T12:06:55.382Z,99.90
2019-05-29T12:09:32.764Z,99.90
2019-05-29T12:11:54.137Z,99.90
2019-05-29T12:14:28.553Z,99.90
2019-05-29T12:16:58.050Z,99.90
2019-05-29T12:19:26.258Z,99.90
2019-05-29T12:21:54.553Z,99.90
2019-05-29T12:24:22.440Z,99.90
2019-05-29T12:26:50.853Z,99.90
2019-05-29T12:29:18.837Z,99.90
2019-05-29T12:31:48.377Z,99.90
2019-05-29T12:34:19.036Z,99.90
2019-05-29T12:36:46.248Z,99.90
2019-05-29T12:39:14.260Z,99.90
2019-05-29T12:41:42.181Z,99.90
2019-05-29T12:44:10.253Z,99.90
2019-05-29T12:46:38.261Z,99.90
2019-05-29T12:49:06.263Z,99.90
2019-05-29T12:51:34.206Z,99.90
2019-05-29T12:54:02.370Z,99.90
2019-05-29T12:56:30.424Z,99.90
2019-05-29T12:58:58.674Z,99.90
2019-05-29T13:01:26.593Z,99.90
2019-05-29T13:03:54.592Z,99.90
2019-05-29T13:06:22.589Z,99.90
2019-05-29T13:08:50.491Z,99.90
2019-05-29T13:11:24.716Z,99.90
2019-05-29T13:13:52.578Z,99.90
2019-05-29T13:16:31.382Z,99.90
2019-05-29T13:18:59.392Z,99.90
2019-05-29T13:21:27.379Z,99.90
2019-05-29T13:23:59.124Z,99.90
2019-05-29T13:26:25.160Z,99.90
2019-05-29T13:28:53.049Z,99.90
2019-05-29T13:31:21.000Z,99.90
2019-05-29T13:33:49.156Z,99.90
2019-05-29T13:36:17.061Z,99.90
2019-05-29T13:38:45.061Z,99.90
2019-05-29T13:41:12.930Z,99.90
2019-05-29T13:43:40.771Z,99.90
2019-05-29T13:46:08.761Z,99.90
2019-05-29T13:48:36.666Z,99.90
2019-05-29T13:51:05.536Z,99.90
2019-05-29T13:53:33.620Z,99.90
2019-05-29T13:56:01.931Z,99.90
2019-05-29T13:58:30.037Z,99.90
2019-05-29T14:00:58.187Z,99.90
2019-05-29T14:03:26.276Z,99.90
2019-05-29T14:05:54.338Z,99.90
2019-05-29T14:08:22.235Z,99.90
2019-05-29T14:10:50.238Z,99.90
2019-05-29T14:13:18.249Z,99.90
2019-05-29T14:16:27.372Z,99.90
2019-05-29T14:18:53.963Z,99.90
2019-05-29T14:21:22.040Z,99.90
2019-05-29T14:23:50.031Z,99.70
2019-05-29T14:26:17.946Z,99.90
2019-05-29T14:28:45.856Z,99.90
2019-05-29T14:31:13.853Z,99.40
2019-05-29T14:33:41.778Z,99.10
2019-05-29T14:36:09.748Z,99.70
2019-05-29T14:38:37.612Z,99.60
2019-05-29T14:41:05.740Z,99.90
2019-05-29T14:43:33.654Z,99.20
2019-05-29T14:46:01.922Z,99.90
2019-05-29T14:48:29.865Z,99.80
2019-05-29T14:50:57.769Z,98.30
2019-05-29T14:53:25.583Z,97.30
2019-05-29T14:55:53.441Z,97.50
2019-05-29T14:58:21.563Z,98.50
2019-05-29T15:00:49.412Z,97.50
2019-05-29T15:03:17.388Z,97.40
2019-05-29T15:05:45.358Z,97.80
2019-05-29T15:08:14.141Z,98.20
2019-05-29T15:10:42.235Z,97.50
2019-05-29T15:13:11.077Z,96.90
2019-05-29T15:16:33.726Z,98.00
2019-05-29T15:18:59.360Z,97.60
2019-05-29T15:21:27.307Z,97.90
2019-05-29T15:23:55.335Z,98.30
2019-05-29T15:26:23.354Z,97.40
2019-05-29T15:28:51.495Z,98.20
2019-05-29T15:31:19.408Z,98.10
2019-05-29T15:33:47.474Z,97.90
2019-05-29T15:36:16.597Z,98.10
2019-05-29T15:38:44.980Z,97.90
2019-05-29T15:41:12.996Z,96.80
2019-05-29T15:43:40.973Z,97.70
2019-05-29T15:46:10.496Z,97.90
2019-05-29T15:48:38.609Z,97.70
2019-05-29T15:51:06.885Z,97.30
2019-05-29T15:53:34.802Z,96.80
2019-05-29T15:56:16.811Z,96.60
2019-05-29T15:58:32.792Z,97.30
2019-05-29T16:01:00.689Z,97.00
2019-05-29T16:03:28.666Z,98.10
2019-05-29T16:05:56.655Z,98.20
2019-05-29T16:08:24.597Z,98.20
2019-05-29T16:10:52.502Z,97.70
2019-05-29T16:13:20.470Z,98.30
2019-05-29T16:16:27.246Z,98.20
2019-05-29T16:18:53.707Z,98.00
2019-05-29T16:21:23.031Z,98.40
2019-05-29T16:23:51.141Z,98.40
2019-05-29T16:26:20.022Z,98.20
2019-05-29T16:28:48.841Z,98.80
2019-05-29T16:31:16.892Z,98.20
2019-05-29T16:33:44.856Z,97.90
2019-05-29T16:36:14.475Z,98.50
2019-05-29T16:38:42.493Z,97.80
2019-05-29T16:41:11.512Z,98.20
2019-05-29T16:43:39.518Z,98.40
2019-05-29T16:46:07.616Z,98.50
2019-05-29T16:48:35.427Z,98.60
2019-05-29T16:51:03.610Z,98.60
2019-05-29T16:53:31.514Z,98.50
2019-05-29T16:55:59.510Z,98.50
2019-05-29T16:58:27.386Z,99.00
2019-05-29T17:00:55.279Z,99.20
2019-05-29T17:03:23.823Z,99.70
2019-05-29T17:05:51.871Z,99.30
2019-05-29T17:08:20.325Z,99.00
2019-05-29T17:10:48.293Z,99.30
2019-05-29T17:13:16.593Z,99.30
2019-05-29T17:16:22.587Z,99.40
2019-05-29T17:18:49.266Z,98.80
2019-05-29T17:21:18.585Z,98.30
2019-05-29T17:23:46.715Z,99.30
2019-05-29T17:26:14.706Z,99.20
2019-05-29T17:28:42.634Z,99.10
2019-05-29T17:31:10.608Z,99.40
2019-05-29T17:33:38.725Z,99.20
2019-05-29T17:36:06.902Z,98.80
2019-05-29T17:38:34.780Z,99.10
2019-05-29T17:41:02.790Z,99.10
2019-05-29T17:43:30.689Z,98.70
2019-05-29T17:45:58.704Z,98.90
2019-05-29T17:48:26.734Z,99.20
2019-05-29T17:50:54.642Z,99.10
2019-05-29T17:53:24.099Z,99.00
2019-05-29T17:55:52.262Z,98.60
2019-05-29T17:58:21.161Z,98.30
2019-05-29T18:00:50.236Z,98.00
2019-05-29T18:03:18.156Z,97.90
2019-05-29T18:05:46.201Z,97.50
2019-05-29T18:08:14.020Z,97.30
2019-05-29T18:10:46.020Z,97.60
2019-05-29T18:13:18.975Z,97.60
2019-05-29T18:15:57.506Z,97.90
2019-05-29T18:18:25.797Z,97.30
2019-05-29T18:20:53.775Z,97.60
2019-05-29T18:23:21.718Z,97.70
2019-05-29T18:25:49.678Z,97.60
2019-05-29T18:28:17.712Z,98.00
2019-05-29T18:30:45.897Z,98.00
2019-05-29T18:33:14.016Z,97.80
2019-05-29T18:35:41.964Z,97.30
2019-05-29T18:38:10.984Z,97.50
2019-05-29T18:40:39.104Z,97.70
2019-05-29T18:43:06.992Z,97.60
2019-05-29T18:45:35.022Z,98.10
2019-05-29T18:48:03.786Z,97.90
2019-05-29T18:50:32.729Z,97.80
2019-05-29T18:53:00.810Z,98.50
2019-05-29T18:55:29.062Z,98.20
2019-05-29T18:57:56.984Z,98.20
2019-05-29T19:00:27.744Z,98.20
2019-05-29T19:02:55.788Z,98.60
2019-05-29T19:05:23.997Z,98.60
2019-05-29T19:07:55.309Z,98.10
2019-05-29T19:10:23.661Z,97.70
2019-05-29T19:12:51.774Z,98.10
2019-05-29T19:15:55.699Z,98.00
2019-05-29T19:18:23.968Z,97.90
2019-05-29T19:20:52.926Z,97.90
2019-05-29T19:23:20.902Z,97.60
2019-05-29T19:25:48.839Z,98.20
2019-05-29T19:28:16.805Z,98.20
2019-05-29T19:30:44.616Z,99.50
2019-05-29T19:33:12.571Z,98.70
2019-05-29T19:35:40.544Z,99.20
2019-05-29T19:38:08.544Z,99.60
2019-05-29T19:40:36.521Z,99.40
2019-05-29T19:43:04.435Z,99.10
2019-05-29T19:45:32.630Z,99.90
2019-05-29T19:48:00.597Z,99.90
2019-05-29T19:50:28.822Z,99.30
2019-05-29T19:52:56.797Z,99.50
2019-05-29T19:55:25.560Z,99.80
2019-05-29T19:57:56.378Z,99.70
2019-05-29T20:00:24.232Z,99.30
2019-05-29T20:02:52.216Z,99.30
2019-05-29T20:05:20.336Z,99.40
2019-05-29T20:07:48.254Z,99.40
2019-05-29T20:10:17.138Z,99.60
2019-05-29T20:12:45.053Z,99.50
2019-05-29T20:15:46.093Z,99.10
2019-05-29T20:18:13.002Z,99.00
2019-05-29T20:20:40.928Z,99.70
2019-05-29T20:23:08.942Z,99.90
2019-05-29T20:25:51.736Z,99.90
2019-05-29T20:29:00.225Z,99.90
2019-05-29T20:31:28.279Z,99.90
2019-05-29T20:33:56.250Z,99.90
2019-05-29T20:36:26.067Z,99.90
2019-05-29T20:38:54.004Z,99.80
2019-05-29T20:41:22.041Z,99.90
2019-05-29T20:43:50.008Z,99.90
2019-05-29T20:46:18.008Z,99.90
2019-05-29T20:48:45.983Z,99.90
2019-05-29T20:51:13.878Z,99.90
2019-05-29T20:53:42.164Z,99.90
2019-05-29T20:56:10.211Z,99.90
2019-05-29T20:58:38.155Z,99.90
2019-05-29T21:01:06.105Z,99.90
2019-05-29T21:03:50.332Z,99.90
2019-05-29T21:06:18.364Z,99.90
2019-05-29T21:08:46.317Z,99.50
2019-05-29T21:11:19.861Z,99.70
2019-05-29T21:13:49.754Z,99.20
2019-05-29T21:16:49.673Z,98.70
2019-05-29T21:19:17.672Z,99.00
2019-05-29T21:21:46.243Z,99.50
2019-05-29T21:24:14.249Z,99.90
2019-05-29T21:26:43.242Z,99.90
2019-05-29T21:29:11.598Z,99.90
2019-05-29T21:31:39.595Z,99.90
2019-05-29T21:34:07.571Z,99.90
2019-05-29T21:36:35.931Z,99.90
2019-05-29T21:39:07.721Z,99.90
2019-05-29T21:41:36.283Z,99.90
2019-05-29T21:44:04.628Z,99.60
2019-05-29T21:46:32.652Z,99.90
2019-05-29T21:49:00.485Z,99.90
2019-05-29T21:51:28.535Z,99.40
2019-05-29T21:53:56.414Z,99.20
2019-05-29T21:56:24.390Z,99.70
2019-05-29T21:59:03.081Z,99.90
2019-05-29T22:01:22.208Z,99.90
2019-05-29T22:03:50.258Z,99.90
2019-05-29T22:06:18.242Z,99.90
2019-05-29T22:08:46.404Z,99.90
2019-05-29T22:11:14.372Z,99.90
2019-05-29T22:13:42.298Z,99.90
2019-05-29T22:16:10.561Z,99.90
2019-05-29T22:18:38.566Z,99.90
2019-05-29T22:21:06.500Z,99.90
2019-05-29T22:23:34.747Z,99.90
2019-05-29T22:26:03.048Z,99.90
2019-05-29T22:29:14.248Z,99.90
2019-05-29T22:31:27.767Z,99.90
2019-05-29T22:33:55.756Z,99.90
2019-05-29T22:36:24.731Z,99.90
2019-05-29T22:38:53.399Z,99.90
2019-05-29T22:41:25.070Z,99.90
2019-05-29T22:43:53.408Z,99.90
2019-05-29T22:46:21.317Z,99.90
2019-05-29T22:48:49.239Z,99.90
2019-05-29T22:51:17.278Z,99.90
2019-05-29T22:53:45.159Z,99.90
2019-05-29T22:56:13.217Z,99.90
2019-05-29T22:58:41.150Z,99.90
2019-05-29T23:01:09.265Z,99.90
2019-05-29T23:03:37.365Z,99.90
2019-05-29T23:06:05.885Z,99.90
2019-05-29T23:08:33.964Z,99.90
2019-05-29T23:11:03.103Z,99.90
2019-05-29T23:13:31.345Z,99.90
2019-05-29T23:16:00.660Z,99.90
2019-05-29T23:18:28.856Z,99.90
2019-05-29T23:20:56.823Z,99.90
2019-05-29T23:23:24.797Z,99.90
2019-05-29T23:25:52.765Z,99.90
2019-05-29T23:28:20.833Z,99.90
2019-05-29T23:30:48.783Z,99.90
2019-05-29T23:33:16.875Z,99.90
2019-05-29T23:35:44.780Z,99.90
2019-05-29T23:38:12.827Z,99.90
2019-05-29T23:40:40.761Z,99.90
2019-05-29T23:43:08.724Z,99.90
2019-05-29T23:45:36.773Z,99.90
2019-05-29T23:48:04.785Z,99.90
2019-05-29T23:50:32.697Z,99.90
2019-05-29T23:53:01.759Z,99.90
2019-05-29T23:55:29.870Z,99.90
2019-05-29T23:57:57.806Z,99.90
